sensor_id;sensor_type;location;lat;lon;timestamp;P1;durP1;ratioP1;P2;durP2;ratioP2
16189;SDS011;41754;51.498;7.540;2023-03-01T00:01:09;14.40;;;12.13;;
16189;SDS011;41754;51.498;7.540;2023-03-01T00:03:41;14.33;;;11.30;;
16189;SDS011;41754;51.498;7.540;2023-03-01T00:06:09;13.73;;;11.63;;
16189;SDS011;41754;51.498;7.540;2023-03-01T00:08:37;15.67;;;12.00;;
16189;SDS011;41754;51.498;7.540;2023-03-01T00:11:06;16.27;;;12.27;;
16189;SDS011;41754;51.498;7.540;2023-03-01T00:13:36;13.33;;;10.73;;
16189;SDS011;41754;51.498;7.540;2023-03-01T00:16:04;15.30;;;11.73;;
16189;SDS011;41754;51.498;7.540;2023-03-01T00:18:34;14.50;;;11.50;;
16189;SDS011;41754;51.498;7.540;2023-03-01T00:21:02;15.47;;;11.97;;
16189;SDS011;41754;51.498;7.540;2023-03-01T00:23:31;14.33;;;11.63;;
16189;SDS011;41754;51.498;7.540;2023-03-01T00:26:00;14.77;;;11.63;;
16189;SDS011;41754;51.498;7.540;2023-03-01T00:28:28;13.00;;;11.60;;
16189;SDS011;41754;51.498;7.540;2023-03-01T00:30:56;14.87;;;11.20;;
16189;SDS011;41754;51.498;7.540;2023-03-01T00:33:29;13.73;;;11.20;;
16189;SDS011;41754;51.498;7.540;2023-03-01T00:35:59;12.20;;;10.77;;
16189;SDS011;41754;51.498;7.540;2023-03-01T00:38:27;14.97;;;11.20;;
16189;SDS011;41754;51.498;7.540;2023-03-01T00:40:54;12.63;;;10.37;;
16189;SDS011;41754;51.498;7.540;2023-03-01T00:43:22;12.27;;;10.70;;
16189;SDS011;41754;51.498;7.540;2023-03-01T00:45:50;14.37;;;11.60;;
16189;SDS011;41754;51.498;7.540;2023-03-01T00:48:18;13.60;;;10.63;;
16189;SDS011;41754;51.498;7.540;2023-03-01T00:50:46;13.27;;;10.73;;
16189;SDS011;41754;51.498;7.540;2023-03-01T00:53:15;11.90;;;10.43;;
16189;SDS011;41754;51.498;7.540;2023-03-01T00:55:43;13.07;;;10.73;;
16189;SDS011;41754;51.498;7.540;2023-03-01T00:58:11;12.47;;;10.43;;
16189;SDS011;41754;51.498;7.540;2023-03-01T01:00:39;14.63;;;11.43;;
16189;SDS011;41754;51.498;7.540;2023-03-01T01:03:06;13.37;;;10.37;;
16189;SDS011;41754;51.498;7.540;2023-03-01T01:05:34;12.13;;;9.80;;
16189;SDS011;41754;51.498;7.540;2023-03-01T01:08:02;13.23;;;10.27;;
16189;SDS011;41754;51.498;7.540;2023-03-01T01:10:32;15.57;;;11.60;;
16189;SDS011;41754;51.498;7.540;2023-03-01T01:13:01;13.63;;;11.33;;
16189;SDS011;41754;51.498;7.540;2023-03-01T01:15:29;13.07;;;10.37;;
16189;SDS011;41754;51.498;7.540;2023-03-01T01:18:01;14.27;;;11.33;;
16189;SDS011;41754;51.498;7.540;2023-03-01T01:20:29;15.77;;;11.77;;
16189;SDS011;41754;51.498;7.540;2023-03-01T01:22:57;12.33;;;10.37;;
16189;SDS011;41754;51.498;7.540;2023-03-01T01:25:25;11.73;;;10.53;;
16189;SDS011;41754;51.498;7.540;2023-03-01T01:27:55;15.63;;;11.60;;
16189;SDS011;41754;51.498;7.540;2023-03-01T01:30:22;13.50;;;10.50;;
16189;SDS011;41754;51.498;7.540;2023-03-01T01:32:50;14.17;;;11.30;;
16189;SDS011;41754;51.498;7.540;2023-03-01T01:35:18;11.37;;;10.17;;
16189;SDS011;41754;51.498;7.540;2023-03-01T01:37:46;12.63;;;10.30;;
16189;SDS011;41754;51.498;7.540;2023-03-01T01:40:14;13.97;;;11.13;;
16189;SDS011;41754;51.498;7.540;2023-03-01T01:42:41;13.07;;;10.33;;
16189;SDS011;41754;51.498;7.540;2023-03-01T01:48:00;14.73;;;11.43;;
16189;SDS011;41754;51.498;7.540;2023-03-01T01:50:33;11.47;;;10.27;;
16189;SDS011;41754;51.498;7.540;2023-03-01T01:53:05;12.47;;;10.27;;
16189;SDS011;41754;51.498;7.540;2023-03-01T01:55:39;13.03;;;9.90;;
16189;SDS011;41754;51.498;7.540;2023-03-01T01:58:10;13.77;;;11.30;;
16189;SDS011;41754;51.498;7.540;2023-03-01T02:00:42;13.40;;;10.47;;
16189;SDS011;41754;51.498;7.540;2023-03-01T02:03:10;14.13;;;10.67;;
16189;SDS011;41754;51.498;7.540;2023-03-01T02:05:42;11.60;;;10.13;;
16189;SDS011;41754;51.498;7.540;2023-03-01T02:08:21;12.03;;;10.73;;
16189;SDS011;41754;51.498;7.540;2023-03-01T02:10:52;14.20;;;10.97;;
16189;SDS011;41754;51.498;7.540;2023-03-01T02:13:23;15.73;;;11.30;;
16189;SDS011;41754;51.498;7.540;2023-03-01T02:15:53;14.90;;;11.37;;
16189;SDS011;41754;51.498;7.540;2023-03-01T02:18:21;12.03;;;10.73;;
16189;SDS011;41754;51.498;7.540;2023-03-01T02:20:55;12.37;;;11.07;;
16189;SDS011;41754;51.498;7.540;2023-03-01T02:23:34;13.83;;;10.90;;
16189;SDS011;41754;51.498;7.540;2023-03-01T02:26:05;13.70;;;10.73;;
16189;SDS011;41754;51.498;7.540;2023-03-01T02:28:40;14.40;;;10.53;;
16189;SDS011;41754;51.498;7.540;2023-03-01T02:31:11;15.70;;;11.60;;
16189;SDS011;41754;51.498;7.540;2023-03-01T02:34:01;14.73;;;11.50;;
16189;SDS011;41754;51.498;7.540;2023-03-01T02:36:31;12.63;;;10.80;;
16189;SDS011;41754;51.498;7.540;2023-03-01T02:39:04;16.20;;;10.93;;
16189;SDS011;41754;51.498;7.540;2023-03-01T02:41:35;13.57;;;10.93;;
16189;SDS011;41754;51.498;7.540;2023-03-01T02:44:05;13.20;;;11.30;;
16189;SDS011;41754;51.498;7.540;2023-03-01T02:46:41;14.13;;;11.63;;
16189;SDS011;41754;51.498;7.540;2023-03-01T02:49:21;15.27;;;11.17;;
16189;SDS011;41754;51.498;7.540;2023-03-01T02:54:48;13.97;;;10.87;;
16189;SDS011;41754;51.498;7.540;2023-03-01T02:57:21;13.63;;;10.63;;
16189;SDS011;41754;51.498;7.540;2023-03-01T02:59:51;15.10;;;11.10;;
16189;SDS011;41754;51.498;7.540;2023-03-01T03:02:22;15.07;;;11.30;;
16189;SDS011;41754;51.498;7.540;2023-03-01T03:05:17;12.90;;;11.27;;
16189;SDS011;41754;51.498;7.540;2023-03-01T03:07:49;12.60;;;10.87;;
16189;SDS011;41754;51.498;7.540;2023-03-01T03:10:19;14.10;;;11.13;;
16189;SDS011;41754;51.498;7.540;2023-03-01T03:12:49;14.80;;;11.83;;
16189;SDS011;41754;51.498;7.540;2023-03-01T03:15:20;13.67;;;11.83;;
16189;SDS011;41754;51.498;7.540;2023-03-01T03:17:49;14.33;;;12.27;;
16189;SDS011;41754;51.498;7.540;2023-03-01T03:20:19;14.23;;;11.63;;
16189;SDS011;41754;51.498;7.540;2023-03-01T03:22:49;15.87;;;12.13;;
16189;SDS011;41754;51.498;7.540;2023-03-01T03:25:19;13.13;;;11.57;;
16189;SDS011;41754;51.498;7.540;2023-03-01T03:27:49;15.93;;;12.87;;
16189;SDS011;41754;51.498;7.540;2023-03-01T03:30:24;14.07;;;12.57;;
16189;SDS011;41754;51.498;7.540;2023-03-01T03:32:53;15.23;;;12.70;;
16189;SDS011;41754;51.498;7.540;2023-03-01T03:35:23;16.73;;;13.40;;
16189;SDS011;41754;51.498;7.540;2023-03-01T03:37:52;15.53;;;13.00;;
16189;SDS011;41754;51.498;7.540;2023-03-01T03:40:30;17.67;;;12.83;;
16189;SDS011;41754;51.498;7.540;2023-03-01T03:42:59;16.67;;;13.30;;
16189;SDS011;41754;51.498;7.540;2023-03-01T03:45:28;14.77;;;13.07;;
16189;SDS011;41754;51.498;7.540;2023-03-01T03:47:59;12.90;;;11.07;;
16189;SDS011;41754;51.498;7.540;2023-03-01T03:50:27;15.60;;;11.93;;
16189;SDS011;41754;51.498;7.540;2023-03-01T03:52:55;15.67;;;13.53;;
16189;SDS011;41754;51.498;7.540;2023-03-01T03:55:24;15.37;;;12.73;;
16189;SDS011;41754;51.498;7.540;2023-03-01T03:57:56;16.57;;;12.17;;
16189;SDS011;41754;51.498;7.540;2023-03-01T04:00:29;18.63;;;12.53;;
16189;SDS011;41754;51.498;7.540;2023-03-01T04:02:57;15.27;;;12.47;;
16189;SDS011;41754;51.498;7.540;2023-03-01T04:05:25;17.13;;;13.27;;
16189;SDS011;41754;51.498;7.540;2023-03-01T04:07:54;16.87;;;13.93;;
16189;SDS011;41754;51.498;7.540;2023-03-01T04:10:28;16.07;;;12.63;;
16189;SDS011;41754;51.498;7.540;2023-03-01T04:12:57;15.67;;;13.07;;
16189;SDS011;41754;51.498;7.540;2023-03-01T04:15:26;15.07;;;12.97;;
16189;SDS011;41754;51.498;7.540;2023-03-01T04:17:56;15.90;;;12.30;;
16189;SDS011;41754;51.498;7.540;2023-03-01T04:20:26;15.07;;;12.43;;
16189;SDS011;41754;51.498;7.540;2023-03-01T04:23:00;18.30;;;12.97;;
16189;SDS011;41754;51.498;7.540;2023-03-01T04:25:37;16.73;;;12.67;;
16189;SDS011;41754;51.498;7.540;2023-03-01T04:28:06;17.23;;;13.50;;
16189;SDS011;41754;51.498;7.540;2023-03-01T04:30:35;16.73;;;12.87;;
16189;SDS011;41754;51.498;7.540;2023-03-01T04:33:05;14.87;;;12.90;;
16189;SDS011;41754;51.498;7.540;2023-03-01T04:35:35;17.17;;;13.73;;
16189;SDS011;41754;51.498;7.540;2023-03-01T04:38:03;15.37;;;12.80;;
16189;SDS011;41754;51.498;7.540;2023-03-01T04:40:32;17.50;;;13.53;;
16189;SDS011;41754;51.498;7.540;2023-03-01T04:43:00;17.33;;;13.70;;
16189;SDS011;41754;51.498;7.540;2023-03-01T04:45:28;17.17;;;12.90;;
16189;SDS011;41754;51.498;7.540;2023-03-01T04:47:56;19.03;;;14.90;;
16189;SDS011;41754;51.498;7.540;2023-03-01T04:50:26;18.80;;;14.07;;
16189;SDS011;41754;51.498;7.540;2023-03-01T04:52:54;16.53;;;13.47;;
16189;SDS011;41754;51.498;7.540;2023-03-01T04:55:25;16.33;;;13.77;;
16189;SDS011;41754;51.498;7.540;2023-03-01T04:57:53;16.13;;;14.03;;
16189;SDS011;41754;51.498;7.540;2023-03-01T05:00:22;18.60;;;13.77;;
16189;SDS011;41754;51.498;7.540;2023-03-01T05:02:51;19.97;;;15.00;;
16189;SDS011;41754;51.498;7.540;2023-03-01T05:05:21;19.70;;;14.60;;
16189;SDS011;41754;51.498;7.540;2023-03-01T05:07:54;17.03;;;12.90;;
16189;SDS011;41754;51.498;7.540;2023-03-01T05:10:24;18.93;;;14.40;;
16189;SDS011;41754;51.498;7.540;2023-03-01T05:12:52;17.93;;;13.63;;
16189;SDS011;41754;51.498;7.540;2023-03-01T05:15:20;16.97;;;14.13;;
16189;SDS011;41754;51.498;7.540;2023-03-01T05:17:52;19.03;;;14.03;;
16189;SDS011;41754;51.498;7.540;2023-03-01T05:20:20;16.37;;;14.33;;
16189;SDS011;41754;51.498;7.540;2023-03-01T05:22:50;16.67;;;13.80;;
16189;SDS011;41754;51.498;7.540;2023-03-01T05:25:20;17.53;;;13.27;;
16189;SDS011;41754;51.498;7.540;2023-03-01T05:27:48;16.73;;;14.47;;
16189;SDS011;41754;51.498;7.540;2023-03-01T05:30:16;19.37;;;14.73;;
16189;SDS011;41754;51.498;7.540;2023-03-01T05:32:45;20.23;;;14.83;;
16189;SDS011;41754;51.498;7.540;2023-03-01T05:35:15;18.13;;;13.97;;
16189;SDS011;41754;51.498;7.540;2023-03-01T05:37:45;17.70;;;14.47;;
16189;SDS011;41754;51.498;7.540;2023-03-01T05:40:14;14.60;;;12.53;;
16189;SDS011;41754;51.498;7.540;2023-03-01T05:42:46;20.60;;;15.50;;
16189;SDS011;41754;51.498;7.540;2023-03-01T05:45:15;21.73;;;15.13;;
16189;SDS011;41754;51.498;7.540;2023-03-01T05:47:44;17.00;;;13.77;;
16189;SDS011;41754;51.498;7.540;2023-03-01T05:50:14;19.73;;;13.60;;
16189;SDS011;41754;51.498;7.540;2023-03-01T05:52:46;18.93;;;14.47;;
16189;SDS011;41754;51.498;7.540;2023-03-01T05:55:15;17.53;;;14.00;;
16189;SDS011;41754;51.498;7.540;2023-03-01T05:57:43;17.97;;;13.10;;
16189;SDS011;41754;51.498;7.540;2023-03-01T06:00:18;16.97;;;13.87;;
16189;SDS011;41754;51.498;7.540;2023-03-01T06:02:48;18.37;;;14.67;;
16189;SDS011;41754;51.498;7.540;2023-03-01T06:05:19;18.50;;;14.40;;
16189;SDS011;41754;51.498;7.540;2023-03-01T06:07:46;17.67;;;13.50;;
16189;SDS011;41754;51.498;7.540;2023-03-01T06:10:15;19.67;;;15.30;;
16189;SDS011;41754;51.498;7.540;2023-03-01T06:12:44;17.90;;;14.87;;
16189;SDS011;41754;51.498;7.540;2023-03-01T06:15:14;21.20;;;14.67;;
16189;SDS011;41754;51.498;7.540;2023-03-01T06:17:43;19.60;;;15.93;;
16189;SDS011;41754;51.498;7.540;2023-03-01T06:20:13;19.80;;;16.17;;
16189;SDS011;41754;51.498;7.540;2023-03-01T06:22:43;18.70;;;15.47;;
16189;SDS011;41754;51.498;7.540;2023-03-01T06:25:13;20.77;;;15.90;;
16189;SDS011;41754;51.498;7.540;2023-03-01T06:27:42;19.50;;;15.43;;
16189;SDS011;41754;51.498;7.540;2023-03-01T06:30:12;19.07;;;15.23;;
16189;SDS011;41754;51.498;7.540;2023-03-01T06:32:43;22.60;;;15.17;;
16189;SDS011;41754;51.498;7.540;2023-03-01T06:35:12;20.37;;;15.53;;
16189;SDS011;41754;51.498;7.540;2023-03-01T06:37:43;21.70;;;16.03;;
16189;SDS011;41754;51.498;7.540;2023-03-01T06:40:12;20.63;;;15.07;;
16189;SDS011;41754;51.498;7.540;2023-03-01T06:42:41;22.03;;;14.57;;
16189;SDS011;41754;51.498;7.540;2023-03-01T06:45:11;18.83;;;15.37;;
16189;SDS011;41754;51.498;7.540;2023-03-01T06:47:40;21.77;;;15.53;;
16189;SDS011;41754;51.498;7.540;2023-03-01T06:50:08;20.10;;;15.73;;
16189;SDS011;41754;51.498;7.540;2023-03-01T06:52:37;20.63;;;15.90;;
16189;SDS011;41754;51.498;7.540;2023-03-01T06:55:06;22.23;;;15.40;;
16189;SDS011;41754;51.498;7.540;2023-03-01T06:57:34;22.53;;;15.93;;
16189;SDS011;41754;51.498;7.540;2023-03-01T07:00:02;20.37;;;15.27;;
16189;SDS011;41754;51.498;7.540;2023-03-01T07:02:31;22.13;;;14.57;;
16189;SDS011;41754;51.498;7.540;2023-03-01T07:05:00;20.67;;;15.90;;
16189;SDS011;41754;51.498;7.540;2023-03-01T07:07:28;22.27;;;15.10;;
16189;SDS011;41754;51.498;7.540;2023-03-01T07:09:56;22.33;;;14.80;;
16189;SDS011;41754;51.498;7.540;2023-03-01T07:12:23;16.37;;;14.50;;
16189;SDS011;41754;51.498;7.540;2023-03-01T07:14:51;18.93;;;15.93;;
16189;SDS011;41754;51.498;7.540;2023-03-01T07:17:19;21.93;;;16.70;;
16189;SDS011;41754;51.498;7.540;2023-03-01T07:19:47;23.63;;;16.80;;
16189;SDS011;41754;51.498;7.540;2023-03-01T07:22:16;24.27;;;16.60;;
16189;SDS011;41754;51.498;7.540;2023-03-01T07:24:44;21.87;;;15.43;;
16189;SDS011;41754;51.498;7.540;2023-03-01T07:27:12;22.23;;;15.53;;
16189;SDS011;41754;51.498;7.540;2023-03-01T07:29:39;17.90;;;14.67;;
16189;SDS011;41754;51.498;7.540;2023-03-01T07:32:07;20.57;;;15.37;;
16189;SDS011;41754;51.498;7.540;2023-03-01T07:34:37;21.30;;;14.73;;
16189;SDS011;41754;51.498;7.540;2023-03-01T07:37:04;20.87;;;15.70;;
16189;SDS011;41754;51.498;7.540;2023-03-01T07:39:34;20.70;;;15.37;;
16189;SDS011;41754;51.498;7.540;2023-03-01T07:42:01;19.33;;;14.93;;
16189;SDS011;41754;51.498;7.540;2023-03-01T07:44:29;20.50;;;14.43;;
16189;SDS011;41754;51.498;7.540;2023-03-01T07:46:57;18.33;;;14.70;;
16189;SDS011;41754;51.498;7.540;2023-03-01T07:49:25;27.00;;;17.60;;
16189;SDS011;41754;51.498;7.540;2023-03-01T07:51:53;19.60;;;14.57;;
16189;SDS011;41754;51.498;7.540;2023-03-01T07:54:21;16.50;;;13.70;;
16189;SDS011;41754;51.498;7.540;2023-03-01T07:56:50;18.40;;;13.10;;
16189;SDS011;41754;51.498;7.540;2023-03-01T07:59:18;15.33;;;13.07;;
16189;SDS011;41754;51.498;7.540;2023-03-01T08:01:46;16.03;;;13.37;;
16189;SDS011;41754;51.498;7.540;2023-03-01T08:04:14;16.57;;;12.27;;
16189;SDS011;41754;51.498;7.540;2023-03-01T08:06:42;13.17;;;11.53;;
16189;SDS011;41754;51.498;7.540;2023-03-01T08:09:09;14.70;;;11.83;;
16189;SDS011;41754;51.498;7.540;2023-03-01T08:11:37;13.57;;;11.53;;
16189;SDS011;41754;51.498;7.540;2023-03-01T08:14:07;13.97;;;12.17;;
16189;SDS011;41754;51.498;7.540;2023-03-01T08:16:35;15.23;;;11.97;;
16189;SDS011;41754;51.498;7.540;2023-03-01T08:19:03;15.83;;;11.50;;
16189;SDS011;41754;51.498;7.540;2023-03-01T08:21:32;16.47;;;12.60;;
16189;SDS011;41754;51.498;7.540;2023-03-01T08:24:01;14.83;;;12.13;;
16189;SDS011;41754;51.498;7.540;2023-03-01T08:26:29;16.47;;;12.40;;
16189;SDS011;41754;51.498;7.540;2023-03-01T08:28:57;14.33;;;11.53;;
16189;SDS011;41754;51.498;7.540;2023-03-01T08:31:27;15.23;;;11.77;;
16189;SDS011;41754;51.498;7.540;2023-03-01T08:33:57;12.47;;;10.57;;
16189;SDS011;41754;51.498;7.540;2023-03-01T08:36:27;14.83;;;11.20;;
16189;SDS011;41754;51.498;7.540;2023-03-01T08:38:57;13.43;;;11.73;;
16189;SDS011;41754;51.498;7.540;2023-03-01T08:41:25;13.63;;;11.50;;
16189;SDS011;41754;51.498;7.540;2023-03-01T08:43:54;14.13;;;11.03;;
16189;SDS011;41754;51.498;7.540;2023-03-01T08:46:26;13.07;;;10.53;;
16189;SDS011;41754;51.498;7.540;2023-03-01T08:48:55;13.83;;;10.93;;
16189;SDS011;41754;51.498;7.540;2023-03-01T08:51:23;16.17;;;11.30;;
16189;SDS011;41754;51.498;7.540;2023-03-01T08:53:52;13.17;;;10.43;;
16189;SDS011;41754;51.498;7.540;2023-03-01T08:56:20;12.67;;;10.63;;
16189;SDS011;41754;51.498;7.540;2023-03-01T08:58:48;12.47;;;9.87;;
16189;SDS011;41754;51.498;7.540;2023-03-01T09:01:16;14.63;;;11.63;;
16189;SDS011;41754;51.498;7.540;2023-03-01T09:03:47;12.97;;;11.10;;
16189;SDS011;41754;51.498;7.540;2023-03-01T09:06:15;11.93;;;9.93;;
16189;SDS011;41754;51.498;7.540;2023-03-01T09:08:43;14.23;;;10.30;;
16189;SDS011;41754;51.498;7.540;2023-03-01T09:11:14;11.47;;;9.00;;
16189;SDS011;41754;51.498;7.540;2023-03-01T09:13:43;17.13;;;12.97;;
16189;SDS011;41754;51.498;7.540;2023-03-01T09:16:12;13.17;;;9.37;;
16189;SDS011;41754;51.498;7.540;2023-03-01T09:18:40;10.93;;;8.93;;
16189;SDS011;41754;51.498;7.540;2023-03-01T09:21:10;11.87;;;8.77;;
16189;SDS011;41754;51.498;7.540;2023-03-01T09:23:40;10.70;;;8.87;;
16189;SDS011;41754;51.498;7.540;2023-03-01T09:26:10;10.07;;;8.07;;
16189;SDS011;41754;51.498;7.540;2023-03-01T09:28:40;8.60;;;7.67;;
16189;SDS011;41754;51.498;7.540;2023-03-01T09:31:08;10.33;;;8.40;;
16189;SDS011;41754;51.498;7.540;2023-03-01T09:33:39;8.43;;;7.53;;
16189;SDS011;41754;51.498;7.540;2023-03-01T09:36:11;11.87;;;8.60;;
16189;SDS011;41754;51.498;7.540;2023-03-01T09:38:40;9.27;;;7.97;;
16189;SDS011;41754;51.498;7.540;2023-03-01T09:41:11;8.37;;;7.50;;
16189;SDS011;41754;51.498;7.540;2023-03-01T09:43:55;9.43;;;8.00;;
16189;SDS011;41754;51.498;7.540;2023-03-01T09:46:30;7.93;;;7.13;;
16189;SDS011;41754;51.498;7.540;2023-03-01T09:49:01;9.20;;;7.27;;
16189;SDS011;41754;51.498;7.540;2023-03-01T09:51:37;8.10;;;6.40;;
16189;SDS011;41754;51.498;7.540;2023-03-01T09:54:05;9.13;;;7.00;;
16189;SDS011;41754;51.498;7.540;2023-03-01T09:56:37;9.20;;;7.37;;
16189;SDS011;41754;51.498;7.540;2023-03-01T09:59:13;9.80;;;6.70;;
16189;SDS011;41754;51.498;7.540;2023-03-01T10:01:50;8.30;;;6.73;;
16189;SDS011;41754;51.498;7.540;2023-03-01T10:04:28;8.43;;;6.80;;
16189;SDS011;41754;51.498;7.540;2023-03-01T10:07:12;8.27;;;6.53;;
16189;SDS011;41754;51.498;7.540;2023-03-01T10:09:51;8.60;;;6.17;;
16189;SDS011;41754;51.498;7.540;2023-03-01T10:12:20;9.10;;;6.33;;
16189;SDS011;41754;51.498;7.540;2023-03-01T10:14:53;8.57;;;6.10;;
16189;SDS011;41754;51.498;7.540;2023-03-01T10:17:26;7.47;;;5.93;;
16189;SDS011;41754;51.498;7.540;2023-03-01T10:19:58;11.43;;;6.53;;
16189;SDS011;41754;51.498;7.540;2023-03-01T10:22:43;9.17;;;5.83;;
16189;SDS011;41754;51.498;7.540;2023-03-01T10:25:17;9.93;;;6.33;;
16189;SDS011;41754;51.498;7.540;2023-03-01T10:27:59;8.13;;;6.03;;
16189;SDS011;41754;51.498;7.540;2023-03-01T10:30:34;9.60;;;6.63;;
16189;SDS011;41754;51.498;7.540;2023-03-01T10:33:08;8.87;;;6.50;;
16189;SDS011;41754;51.498;7.540;2023-03-01T10:35:43;6.80;;;5.67;;
16189;SDS011;41754;51.498;7.540;2023-03-01T10:38:14;8.53;;;6.67;;
16189;SDS011;41754;51.498;7.540;2023-03-01T10:40:50;7.30;;;6.33;;
16189;SDS011;41754;51.498;7.540;2023-03-01T10:43:19;8.27;;;6.40;;
16189;SDS011;41754;51.498;7.540;2023-03-01T10:45:48;7.90;;;6.00;;
16189;SDS011;41754;51.498;7.540;2023-03-01T10:48:17;7.50;;;6.40;;
16189;SDS011;41754;51.498;7.540;2023-03-01T10:50:50;6.77;;;6.00;;
16189;SDS011;41754;51.498;7.540;2023-03-01T10:53:34;9.10;;;6.53;;
16189;SDS011;41754;51.498;7.540;2023-03-01T10:56:06;8.17;;;6.17;;
16189;SDS011;41754;51.498;7.540;2023-03-01T10:58:36;8.93;;;6.20;;
16189;SDS011;41754;51.498;7.540;2023-03-01T11:01:05;7.80;;;5.80;;
16189;SDS011;41754;51.498;7.540;2023-03-01T11:03:37;7.53;;;6.07;;
16189;SDS011;41754;51.498;7.540;2023-03-01T11:06:12;7.63;;;6.23;;
16189;SDS011;41754;51.498;7.540;2023-03-01T11:08:50;7.10;;;6.40;;
16189;SDS011;41754;51.498;7.540;2023-03-01T11:11:21;7.53;;;6.77;;
16189;SDS011;41754;51.498;7.540;2023-03-01T11:13:59;8.67;;;6.87;;
16189;SDS011;41754;51.498;7.540;2023-03-01T11:16:58;52.30;;;32.75;;
16189;SDS011;41754;51.498;7.540;2023-03-01T11:19:27;8.90;;;5.95;;
16189;SDS011;41754;51.498;7.540;2023-03-01T11:21:59;8.25;;;6.53;;
16189;SDS011;41754;51.498;7.540;2023-03-01T11:24:33;8.30;;;6.45;;
16189;SDS011;41754;51.498;7.540;2023-03-01T11:27:12;7.55;;;6.72;;
16189;SDS011;41754;51.498;7.540;2023-03-01T11:29:45;7.20;;;5.97;;
16189;SDS011;41754;51.498;7.540;2023-03-01T11:32:17;7.05;;;6.35;;
16189;SDS011;41754;51.498;7.540;2023-03-01T11:34:48;6.80;;;6.07;;
16189;SDS011;41754;51.498;7.540;2023-03-01T11:37:22;7.35;;;6.00;;
16189;SDS011;41754;51.498;7.540;2023-03-01T11:40:03;7.10;;;6.22;;
16189;SDS011;41754;51.498;7.540;2023-03-01T11:42:42;9.07;;;6.50;;
16189;SDS011;41754;51.498;7.540;2023-03-01T11:45:17;7.65;;;6.63;;
16189;SDS011;41754;51.498;7.540;2023-03-01T11:48:02;7.25;;;6.18;;
16189;SDS011;41754;51.498;7.540;2023-03-01T11:50:50;7.55;;;6.50;;
16189;SDS011;41754;51.498;7.540;2023-03-01T11:53:29;7.65;;;6.85;;
16189;SDS011;41754;51.498;7.540;2023-03-01T11:56:08;9.60;;;6.88;;
16189;SDS011;41754;51.498;7.540;2023-03-01T11:58:45;9.27;;;6.70;;
16189;SDS011;41754;51.498;7.540;2023-03-01T12:01:36;7.57;;;6.57;;
16189;SDS011;41754;51.498;7.540;2023-03-01T12:07:23;7.53;;;6.78;;
16189;SDS011;41754;51.498;7.540;2023-03-01T12:10:06;6.82;;;6.13;;
16189;SDS011;41754;51.498;7.540;2023-03-01T12:13:04;6.97;;;6.25;;
16189;SDS011;41754;51.498;7.540;2023-03-01T12:15:48;6.82;;;6.10;;
16189;SDS011;41754;51.498;7.540;2023-03-01T12:18:32;7.47;;;6.70;;
16189;SDS011;41754;51.498;7.540;2023-03-01T12:21:18;9.05;;;6.63;;
16189;SDS011;41754;51.498;7.540;2023-03-01T12:24:02;7.30;;;5.93;;
16189;SDS011;41754;51.498;7.540;2023-03-01T12:26:53;6.68;;;5.90;;
16189;SDS011;41754;51.498;7.540;2023-03-01T12:29:38;9.68;;;6.22;;
16189;SDS011;41754;51.498;7.540;2023-03-01T12:35:11;6.65;;;6.05;;
16189;SDS011;41754;51.498;7.540;2023-03-01T12:37:57;7.45;;;6.03;;
16189;SDS011;41754;51.498;7.540;2023-03-01T12:40:37;7.85;;;6.28;;
16189;SDS011;41754;51.498;7.540;2023-03-01T12:43:27;7.50;;;6.05;;
16189;SDS011;41754;51.498;7.540;2023-03-01T12:46:20;9.25;;;6.07;;
16189;SDS011;41754;51.498;7.540;2023-03-01T12:48:58;7.45;;;6.10;;
16189;SDS011;41754;51.498;7.540;2023-03-01T12:51:33;8.30;;;6.65;;
16189;SDS011;41754;51.498;7.540;2023-03-01T12:54:05;11.13;;;7.03;;
16189;SDS011;41754;51.498;7.540;2023-03-01T12:56:38;8.07;;;6.50;;
16189;SDS011;41754;51.498;7.540;2023-03-01T12:59:09;8.68;;;6.32;;
16189;SDS011;41754;51.498;7.540;2023-03-01T13:01:45;8.98;;;7.03;;
16189;SDS011;41754;51.498;7.540;2023-03-01T13:04:26;7.53;;;6.40;;
16189;SDS011;41754;51.498;7.540;2023-03-01T13:07:05;6.78;;;6.07;;
16189;SDS011;41754;51.498;7.540;2023-03-01T13:09:46;8.68;;;6.10;;
16189;SDS011;41754;51.498;7.540;2023-03-01T13:15:24;7.93;;;6.68;;
16189;SDS011;41754;51.498;7.540;2023-03-01T13:17:54;7.25;;;6.15;;
16189;SDS011;41754;51.498;7.540;2023-03-01T13:20:24;8.40;;;6.97;;
16189;SDS011;41754;51.498;7.540;2023-03-01T13:23:01;7.47;;;5.95;;
16189;SDS011;41754;51.498;7.540;2023-03-01T13:25:31;7.88;;;5.90;;
16189;SDS011;41754;51.498;7.540;2023-03-01T13:37:26;6.75;;;5.63;;
16189;SDS011;41754;51.498;7.540;2023-03-01T13:39:57;7.07;;;6.38;;
16189;SDS011;41754;51.498;7.540;2023-03-01T13:42:31;6.55;;;5.55;;
16189;SDS011;41754;51.498;7.540;2023-03-01T13:45:04;7.50;;;6.45;;
16189;SDS011;41754;51.498;7.540;2023-03-01T13:47:43;7.03;;;5.43;;
16189;SDS011;41754;51.498;7.540;2023-03-01T13:50:20;6.22;;;5.55;;
16189;SDS011;41754;51.498;7.540;2023-03-01T13:52:52;7.00;;;5.40;;
16189;SDS011;41754;51.498;7.540;2023-03-01T13:55:24;6.15;;;5.50;;
16189;SDS011;41754;51.498;7.540;2023-03-01T13:57:58;5.93;;;5.32;;
16189;SDS011;41754;51.498;7.540;2023-03-01T14:00:30;5.22;;;4.72;;
16189;SDS011;41754;51.498;7.540;2023-03-01T14:03:01;6.90;;;5.40;;
16189;SDS011;41754;51.498;7.540;2023-03-01T14:05:33;5.70;;;5.18;;
16189;SDS011;41754;51.498;7.540;2023-03-01T14:08:02;7.43;;;5.43;;
16189;SDS011;41754;51.498;7.540;2023-03-01T14:10:34;8.73;;;5.15;;
16189;SDS011;41754;51.498;7.540;2023-03-01T14:13:20;6.40;;;5.43;;
16189;SDS011;41754;51.498;7.540;2023-03-01T14:16:01;7.78;;;5.90;;
16189;SDS011;41754;51.498;7.540;2023-03-01T14:18:42;6.07;;;5.47;;
16189;SDS011;41754;51.498;7.540;2023-03-01T14:21:21;6.20;;;5.40;;
16189;SDS011;41754;51.498;7.540;2023-03-01T14:23:52;6.15;;;5.55;;
16189;SDS011;41754;51.498;7.540;2023-03-01T14:26:20;5.85;;;5.25;;
16189;SDS011;41754;51.498;7.540;2023-03-01T14:28:49;6.65;;;5.82;;
16189;SDS011;41754;51.498;7.540;2023-03-01T14:31:32;6.85;;;5.43;;
16189;SDS011;41754;51.498;7.540;2023-03-01T14:34:18;6.05;;;5.45;;
16189;SDS011;41754;51.498;7.540;2023-03-01T14:36:49;5.50;;;5.00;;
16189;SDS011;41754;51.498;7.540;2023-03-01T14:39:18;7.00;;;5.43;;
16189;SDS011;41754;51.498;7.540;2023-03-01T14:41:47;6.53;;;5.13;;
16189;SDS011;41754;51.498;7.540;2023-03-01T14:44:16;5.30;;;4.75;;
16189;SDS011;41754;51.498;7.540;2023-03-01T14:46:51;6.35;;;5.10;;
16189;SDS011;41754;51.498;7.540;2023-03-01T14:49:21;6.55;;;5.30;;
16189;SDS011;41754;51.498;7.540;2023-03-01T14:51:54;6.32;;;5.72;;
16189;SDS011;41754;51.498;7.540;2023-03-01T14:54:27;6.03;;;5.43;;
16189;SDS011;41754;51.498;7.540;2023-03-01T14:57:00;7.70;;;6.35;;
16189;SDS011;41754;51.498;7.540;2023-03-01T14:59:28;6.18;;;5.57;;
16189;SDS011;41754;51.498;7.540;2023-03-01T15:01:57;8.18;;;5.57;;
16189;SDS011;41754;51.498;7.540;2023-03-01T15:04:25;6.25;;;5.65;;
16189;SDS011;41754;51.498;7.540;2023-03-01T15:06:56;5.88;;;5.28;;
16189;SDS011;41754;51.498;7.540;2023-03-01T15:09:31;5.95;;;5.15;;
16189;SDS011;41754;51.498;7.540;2023-03-01T15:15:31;6.10;;;5.25;;
16189;SDS011;41754;51.498;7.540;2023-03-01T15:18:06;5.53;;;5.03;;
16189;SDS011;41754;51.498;7.540;2023-03-01T15:20:41;5.63;;;5.07;;
16189;SDS011;41754;51.498;7.540;2023-03-01T15:23:22;5.95;;;5.25;;
16189;SDS011;41754;51.498;7.540;2023-03-01T15:25:51;7.47;;;5.75;;